Time;durP1;ratioP1;P1;durP2;ratioP2;P2;SDS_P1;SDS_P2;PMS_P1;PMS_P2;Temp;Humidity;BMP_temperature;BMP_pressure;BME280_temperature;BME280_humidity;BME280_pressure;Samples;Min_cycle;Max_cycle;Signal;HPM_P1;HPM_P2
2021/06/13 00:01:51;;;;;;;14.27;5.75;;;;;;;13.45;68.23;102614.88;5133225;27;20058;-54
2021/06/13 00:04:17;;;;;;;12.15;5.90;;;;;;;13.40;68.53;102621.31;5117933;28;20043;-55
2021/06/13 00:06:44;;;;;;;14.93;6.10;;;;;;;13.31;68.83;102615.53;5132493;27;20051;-54
2021/06/13 00:09:11;;;;;;;14.63;5.22;;;;;;;13.29;69.27;102614.75;5131847;28;20370;-54
2021/06/13 00:11:38;;;;;;;12.75;5.63;;;;;;;13.33;68.80;102616.31;5111831;28;20047;-55
2021/06/13 00:14:05;;;;;;;16.80;5.80;;;;;;;13.43;68.61;102626.44;5097372;28;20157;-55
2021/06/13 00:16:32;;;;;;;16.23;5.95;;;;;;;13.38;68.73;102625.84;5132379;27;20055;-50
2021/06/13 00:18:59;;;;;;;13.57;5.60;;;;;;;13.41;68.61;102628.31;5132640;28;20027;-55
2021/06/13 00:21:26;;;;;;;11.40;5.45;;;;;;;13.45;68.78;102629.88;5149158;27;20050;-50
2021/06/13 00:23:53;;;;;;;13.73;6.05;;;;;;;13.29;69.14;102627.97;5154913;27;20066;-50
2021/06/13 00:26:20;;;;;;;14.90;6.20;;;;;;;13.25;68.95;102631.69;5151074;27;20039;-49
2021/06/13 00:28:47;;;;;;;21.27;7.15;;;;;;;13.22;69.38;102631.81;5134752;27;20147;-51
2021/06/13 00:31:14;;;;;;;15.50;6.32;;;;;;;13.26;69.09;102624.59;5136340;27;20136;-52
2021/06/13 00:33:41;;;;;;;16.40;5.78;;;;;;;13.22;69.17;102633.59;5135792;27;20051;-55
2021/06/13 00:36:07;;;;;;;15.77;6.13;;;;;;;13.23;69.12;102635.31;5118255;27;20035;-50
2021/06/13 00:38:34;;;;;;;18.35;5.85;;;;;;;13.29;68.72;102638.53;5117424;27;20447;-55
2021/06/13 00:41:01;;;;;;;14.32;5.90;;;;;;;13.22;69.25;102637.09;5101398;27;20051;-55
2021/06/13 00:43:28;;;;;;;12.15;5.75;;;;;;;13.12;69.47;102643.75;5116477;27;20057;-52
2021/06/13 00:45:55;;;;;;;15.80;5.65;;;;;;;13.12;69.47;102646.41;5116184;27;20050;-49
2021/06/13 00:48:22;;;;;;;12.68;5.93;;;;;;;13.16;69.33;102650.63;5156617;27;20138;-53
2021/06/13 00:50:51;;;;;;;16.48;6.40;;;;;;;13.02;69.93;102641.56;5155140;27;20042;-54
2021/06/13 00:53:18;;;;;;;15.15;5.80;;;;;;;13.09;69.65;102651.81;5154328;27;20043;-54
2021/06/13 00:55:45;;;;;;;12.40;5.63;;;;;;;13.10;69.41;102649.13;5157097;27;20046;-50
2021/06/13 00:58:12;;;;;;;13.30;5.45;;;;;;;13.13;69.79;102645.44;5118755;27;20066;-55
2021/06/13 01:00:39;;;;;;;13.50;5.65;;;;;;;13.11;70.00;102639.41;5134295;27;20062;-52
2021/06/13 01:03:07;;;;;;;12.60;5.85;;;;;;;13.00;69.91;102645.19;5136664;27;20517;-49
2021/06/13 01:05:34;;;;;;;16.45;5.70;;;;;;;13.02;70.08;102643.34;5156612;27;20054;-55
2021/06/13 01:08:30;;;;;;;15.45;6.28;;;;;;;13.08;69.71;102644.84;5144305;27;20047;-53
2021/06/13 01:11:19;;;;;;;16.75;6.38;;;;;;;13.05;70.43;102645.84;5135870;27;20401;-55
2021/06/13 01:14:04;;;;;;;14.35;5.88;;;;;;;13.12;70.57;102638.47;5135748;27;20492;-53
2021/06/13 01:16:57;;;;;;;11.70;5.80;;;;;;;13.14;70.78;102637.47;5144130;27;20053;-52
2021/06/13 01:19:43;;;;;;;;;;;;;;;13.08;70.80;102634.28;5135499;27;20517;-51
2021/06/13 01:22:37;;;;;;;11.98;4.68;;;;;;;13.13;70.52;102641.03;5153129;27;20270;-56
2021/06/13 01:25:31;;;;;;;10.68;5.03;;;;;;;13.15;70.18;102638.31;5138312;27;20051;-53
2021/06/13 01:28:34;;;;;;;17.38;6.32;;;;;;;13.12;69.94;102639.31;5116031;27;20046;-47
2021/06/13 01:31:01;;;;;;;10.93;5.85;;;;;;;13.06;70.58;102633.47;5133377;27;20062;-47
2021/06/13 01:33:29;;;;;;;17.63;5.97;;;;;;;12.91;71.20;102635.91;5125757;27;20099;-53
2021/06/13 01:35:55;;;;;;;14.05;6.25;;;;;;;12.88;71.55;102643.97;5125851;27;20050;-51
2021/06/13 01:38:23;;;;;;;15.18;6.30;;;;;;;12.82;71.84;102637.19;5135169;27;20058;-52
2021/06/13 01:40:50;;;;;;;13.15;5.32;;;;;;;12.82;71.70;102633.69;5134035;27;20047;-51
2021/06/13 01:43:17;;;;;;;11.27;5.38;;;;;;;12.83;72.03;102632.78;5116915;27;20118;-51
2021/06/13 01:45:45;;;;;;;13.77;5.78;;;;;;;12.71;71.76;102626.28;5115244;27;20043;-48
2021/06/13 01:48:14;;;;;;;17.40;5.97;;;;;;;12.75;72.21;102629.59;5127420;27;20566;-52
2021/06/13 01:50:41;;;;;;;15.88;6.25;;;;;;;12.74;72.15;102625.28;5126070;27;20506;-50
2021/06/13 01:53:13;;;;;;;15.50;5.65;;;;;;;12.75;71.99;102629.59;5116582;27;20043;-48
2021/06/13 01:55:42;;;;;;;13.10;5.97;;;;;;;12.90;71.52;102642.13;5135334;27;20047;-48
2021/06/13 01:58:13;;;;;;;13.68;5.75;;;;;;;12.90;71.43;102636.84;5116482;27;20837;-48
2021/06/13 02:00:40;;;;;;;14.90;5.40;;;;;;;12.77;71.93;102635.69;5149277;27;20397;-55
2021/06/13 02:03:08;;;;;;;18.10;6.15;;;;;;;12.47;73.18;102631.72;5146819;27;20047;-50
2021/06/13 02:05:37;;;;;;;17.15;6.63;;;;;;;12.40;73.33;102634.72;5134048;27;20088;-50
2021/06/13 02:08:04;;;;;;;17.35;6.47;;;;;;;12.43;73.81;102632.78;5145663;27;20135;-51
2021/06/13 02:10:32;;;;;;;14.10;5.57;;;;;;;12.57;72.72;102632.19;5134817;27;20043;-55
2021/06/13 02:13:00;;;;;;;16.67;6.38;;;;;;;12.51;73.06;102628.03;5118344;27;20051;-52
2021/06/13 02:15:28;;;;;;;19.17;6.47;;;;;;;12.53;72.84;102630.63;5115573;27;20051;-52
2021/06/13 02:17:55;;;;;;;14.88;6.25;;;;;;;12.59;72.65;102632.97;5132383;27;20043;-52
2021/06/13 02:20:25;;;;;;;17.45;6.18;;;;;;;12.56;73.25;102632.25;5098109;27;20500;-51
2021/06/13 02:22:53;;;;;;;16.80;6.65;;;;;;;12.52;73.11;102640.28;5133844;27;20050;-50
2021/06/13 02:25:21;;;;;;;17.83;6.65;;;;;;;12.47;73.03;102636.16;5115782;27;20043;-51
2021/06/13 02:27:51;;;;;;;12.50;6.18;;;;;;;12.45;72.88;102638.88;5115693;27;20054;-54
2021/06/13 02:30:21;;;;;;;16.00;6.50;;;;;;;12.37;73.38;102637.50;5115984;27;20047;-52
2021/06/13 02:32:48;;;;;;;15.68;6.72;;;;;;;12.30;73.78;102635.13;5115324;27;20485;-53
2021/06/13 02:35:16;;;;;;;16.88;6.63;;;;;;;12.28;74.06;102631.69;5115904;27;20142;-51
2021/06/13 02:37:44;;;;;;;16.73;6.70;;;;;;;12.32;73.93;102628.00;5115776;27;20517;-55
2021/06/13 02:40:13;;;;;;;16.83;6.68;;;;;;;12.36;74.20;102634.00;5118169;27;20050;-50
2021/06/13 02:42:40;;;;;;;16.85;6.82;;;;;;;12.39;73.50;102633.00;5134043;27;20062;-55
2021/06/13 02:45:12;;;;;;;18.83;6.40;;;;;;;12.32;73.61;102638.56;5119568;27;20051;-54
2021/06/13 02:47:39;;;;;;;15.93;7.53;;;;;;;12.30;74.11;102627.22;5132528;27;20043;-54
2021/06/13 02:50:08;;;;;;;17.92;7.22;;;;;;;12.15;74.60;102639.28;5113248;27;20509;-51
2021/06/13 02:52:43;;;;;;;17.30;6.80;;;;;;;12.06;75.02;102646.75;5118463;27;20434;-49
2021/06/13 02:55:15;;;;;;;18.20;6.40;;;;;;;12.13;74.98;102635.88;5113126;27;20492;-52
2021/06/13 02:58:05;;;;;;;16.67;6.38;;;;;;;12.06;75.41;102644.09;5113795;27;20046;-54
2021/06/13 03:00:32;;;;;;;22.05;6.93;;;;;;;12.25;74.48;102639.75;5113782;27;20046;-53
2021/06/13 03:03:00;;;;;;;13.93;5.85;;;;;;;12.15;74.11;102638.44;5114313;27;20099;-55
2021/06/13 03:05:27;;;;;;;17.48;6.80;;;;;;;12.22;74.80;102644.31;5121781;27;20034;-54
2021/06/13 03:07:55;;;;;;;14.32;6.38;;;;;;;12.18;74.76;102644.41;5119071;27;20035;-54
2021/06/13 03:10:22;;;;;;;19.95;7.00;;;;;;;12.19;74.42;102642.66;5114216;27;20096;-48
2021/06/13 03:12:54;;;;;;;13.07;5.65;;;;;;;12.25;74.24;102647.66;5113576;27;20062;-49
2021/06/13 03:15:20;;;;;;;16.55;6.45;;;;;;;12.17;75.12;102644.50;5132299;27;20043;-51
2021/06/13 03:17:48;;;;;;;16.80;6.93;;;;;;;12.13;75.27;102651.69;5113742;27;20070;-51
2021/06/13 03:20:15;;;;;;;14.52;5.75;;;;;;;12.27;74.68;102651.09;5132070;27;20068;-51
2021/06/13 03:22:42;;;;;;;13.27;5.95;;;;;;;12.30;74.19;102647.47;5104613;27;20043;-49
2021/06/13 03:25:09;;;;;;;16.10;6.68;;;;;;;12.13;75.13;102653.47;5113782;27;20039;-50
2021/06/13 03:27:40;;;;;;;14.35;6.28;;;;;;;12.12;75.24;102659.66;5113901;27;20405;-53
2021/06/13 03:30:08;;;;;;;15.18;6.18;;;;;;;12.22;74.78;102662.78;5104953;27;20047;-52
2021/06/13 03:32:35;;;;;;;13.73;5.63;;;;;;;12.26;74.50;102662.56;5104004;28;20051;-48
2021/06/13 03:35:03;;;;;;;14.75;6.28;;;;;;;12.24;74.59;102659.13;5099693;27;20534;-52
2021/06/13 03:37:30;;;;;;;15.15;6.13;;;;;;;12.22;74.53;102654.88;5121930;28;20058;-55
2021/06/13 03:39:58;;;;;;;13.00;5.90;;;;;;;12.12;75.26;102663.16;5122158;27;20381;-54
2021/06/13 03:42:25;;;;;;;14.68;6.85;;;;;;;12.03;76.03;102668.81;5116258;27;20047;-55
2021/06/13 03:44:52;;;;;;;15.75;6.72;;;;;;;12.04;75.78;102667.03;5142939;27;20038;-54
2021/06/13 03:47:19;;;;;;;15.27;6.63;;;;;;;12.02;75.57;102669.75;5131637;28;20043;-51
2021/06/13 03:49:48;;;;;;;16.00;6.05;;;;;;;12.00;76.02;102669.81;5131445;28;20039;-49
2021/06/13 03:52:17;;;;;;;14.35;5.38;;;;;;;12.06;75.23;102673.13;5131328;27;20047;-48
2021/06/13 03:54:44;;;;;;;16.80;6.85;;;;;;;12.07;76.00;102675.69;5132311;27;20081;-48
2021/06/13 03:57:12;;;;;;;17.95;6.32;;;;;;;12.05;75.15;102677.50;5131408;27;20428;-51
2021/06/13 03:59:40;;;;;;;18.83;6.80;;;;;;;12.11;75.43;102679.91;5122223;27;20042;-51
2021/06/13 04:02:08;;;;;;;13.70;5.00;;;;;;;12.18;75.46;102693.69;5118139;27;20039;-55
2021/06/13 04:04:43;;;;;;;15.30;5.97;;;;;;;12.18;74.94;102698.97;5113802;27;20047;-50
2021/06/13 04:07:10;;;;;;;16.42;5.63;;;;;;;12.11;75.20;102697.53;5118908;27;20043;-55
2021/06/13 04:09:39;;;;;;;16.77;6.88;;;;;;;12.07;75.54;102701.22;5114213;27;20031;-53
2021/06/13 04:12:07;;;;;;;17.83;6.30;;;;;;;12.15;75.40;102705.22;5120091;27;20062;-54
2021/06/13 04:14:34;;;;;;;14.43;6.43;;;;;;;12.27;75.48;102706.50;5117629;27;20359;-53
2021/06/13 04:17:02;;;;;;;12.70;5.88;;;;;;;12.22;75.61;102705.81;5117672;27;20394;-54
2021/06/13 04:19:30;;;;;;;17.73;6.40;;;;;;;12.13;76.11;102711.47;5125249;27;20045;-48
2021/06/13 04:21:57;;;;;;;17.75;7.30;;;;;;;12.10;76.15;102707.19;5125321;27;20071;-54
2021/06/13 04:24:25;;;;;;;14.77;6.05;;;;;;;12.10;76.50;102712.47;5132423;27;20408;-52
2021/06/13 04:26:55;;;;;;;12.40;5.95;;;;;;;12.10;76.83;102708.97;5117030;27;20051;-51
2021/06/13 04:29:22;;;;;;;18.30;6.53;;;;;;;12.31;76.30;102705.44;5135160;27;20039;-53
2021/06/13 04:31:48;;;;;;;19.58;7.30;;;;;;;12.28;75.80;102700.28;5143384;27;20039;-51
2021/06/13 04:34:15;;;;;;;15.52;6.05;;;;;;;12.27;76.22;102711.78;5134567;27;20043;-50
2021/06/13 04:36:42;;;;;;;15.88;5.78;;;;;;;12.22;76.74;102711.09;5124982;27;20057;-50
2021/06/13 04:39:09;;;;;;;14.07;5.85;;;;;;;12.28;76.39;102709.97;5135272;27;20534;-53
2021/06/13 04:41:36;;;;;;;16.05;6.10;;;;;;;12.46;75.95;102713.59;5134690;27;20054;-52
2021/06/13 04:44:03;;;;;;;15.02;6.13;;;;;;;12.46;75.62;102710.97;5135029;27;20043;-49
2021/06/13 04:46:31;;;;;;;15.90;6.30;;;;;;;12.49;75.75;102718.75;5134893;27;20062;-52
2021/06/13 04:48:58;;;;;;;13.60;6.22;;;;;;;12.45;75.84;102717.19;5135164;27;20070;-50
2021/06/13 04:51:26;;;;;;;13.23;6.00;;;;;;;12.46;76.16;102711.84;5134864;27;20043;-51
2021/06/13 04:53:56;;;;;;;15.35;6.18;;;;;;;12.57;75.61;102727.19;5100694;27;20062;-53
2021/06/13 04:56:44;;;;;;;12.98;5.57;;;;;;;12.67;76.18;102722.38;5134933;27;20039;-51
2021/06/13 04:59:11;;;;;;;14.85;5.75;;;;;;;12.70;75.86;102727.50;5129435;27;20457;-55
2021/06/13 05:01:42;;;;;;;20.67;6.45;;;;;;;12.95;75.64;102726.41;5118756;27;20051;-52
2021/06/13 05:04:09;;;;;;;16.65;6.30;;;;;;;13.05;75.17;102721.56;5112441;27;20398;-49
2021/06/13 05:06:36;;;;;;;13.23;5.95;;;;;;;13.07;74.78;102723.19;5114021;27;20109;-51
2021/06/13 05:09:03;;;;;;;17.63;6.22;;;;;;;13.19;74.30;102727.91;5114101;27;20040;-55
2021/06/13 05:11:30;;;;;;;20.23;6.10;;;;;;;13.22;74.25;102726.91;5111651;27;20109;-55
2021/06/13 05:13:57;;;;;;;16.25;5.97;;;;;;;13.37;74.22;102727.19;5112854;27;20040;-55
2021/06/13 05:16:23;;;;;;;14.15;5.90;;;;;;;13.38;73.32;102732.38;5113903;27;20402;-52
2021/06/13 05:18:50;;;;;;;16.30;6.35;;;;;;;13.61;73.42;102736.56;5118350;27;20043;-55
2021/06/13 05:21:17;;;;;;;17.05;6.50;;;;;;;13.63;73.75;102732.09;5114024;27;20063;-52
2021/06/13 05:23:44;;;;;;;14.93;5.90;;;;;;;13.63;73.10;102734.72;5112788;27;20063;-49
2021/06/13 05:26:10;;;;;;;15.98;5.57;;;;;;;13.67;71.84;102736.28;5114116;27;20035;-54
2021/06/13 05:28:38;;;;;;;15.00;6.05;;;;;;;13.82;71.73;102732.03;5113894;27;20051;-52
2021/06/13 05:31:05;;;;;;;13.98;5.95;;;;;;;13.96;72.07;102738.41;5112182;27;20047;-55
2021/06/13 05:33:32;;;;;;;14.13;5.82;;;;;;;14.01;70.46;102734.63;5113458;27;20043;-56
2021/06/13 05:36:01;;;;;;;14.65;5.30;;;;;;;14.09;69.83;102736.88;5117118;27;20078;-53
2021/06/13 05:38:29;;;;;;;11.35;4.88;;;;;;;14.15;70.34;102738.38;5112540;27;20136;-50
2021/06/13 05:40:56;;;;;;;10.73;5.35;;;;;;;14.20;69.85;102745.13;5111710;27;20040;-53
2021/06/13 05:43:23;;;;;;;15.70;4.90;;;;;;;14.30;69.52;102745.53;5113271;27;20520;-52
2021/06/13 05:45:50;;;;;;;16.58;5.55;;;;;;;14.32;68.45;102751.59;5120029;27;20520;-50
2021/06/13 05:48:17;;;;;;;13.75;5.35;;;;;;;14.48;69.03;102753.44;5112001;28;20048;-50
2021/06/13 05:50:44;;;;;;;16.50;5.63;;;;;;;14.53;68.20;102754.06;5111634;27;20047;-51
2021/06/13 05:53:10;;;;;;;13.90;5.40;;;;;;;14.62;67.09;102756.25;5094935;28;20088;-56
2021/06/13 05:55:38;;;;;;;13.40;4.82;;;;;;;14.81;66.71;102758.81;5113628;27;20055;-57
2021/06/13 05:58:05;;;;;;;11.10;4.38;;;;;;;14.86;67.44;102770.03;5112644;27;20043;-56
2021/06/13 06:00:34;;;;;;;11.35;4.55;;;;;;;15.00;66.58;102766.66;5113302;27;20039;-51
2021/06/13 06:03:02;;;;;;;8.73;4.68;;;;;;;15.10;65.42;102766.16;5112067;27;20070;-51
2021/06/13 06:05:31;;;;;;;12.68;5.03;;;;;;;15.25;65.81;102767.97;5132681;27;20047;-56
2021/06/13 06:07:58;;;;;;;11.93;4.30;;;;;;;15.32;65.54;102771.97;5133412;27;20050;-51
2021/06/13 06:10:26;;;;;;;11.02;4.07;;;;;;;15.33;64.65;102779.00;5115215;27;20108;-52
2021/06/13 06:12:55;;;;;;;10.25;4.13;;;;;;;15.53;64.64;102780.56;5114914;27;20369;-56
2021/06/13 06:15:26;;;;;;;10.10;3.97;;;;;;;15.67;63.60;102768.34;5098297;27;20078;-57
2021/06/13 06:17:53;;;;;;;11.43;4.85;;;;;;;15.70;62.26;102776.13;5114953;27;20043;-52
2021/06/13 06:20:23;;;;;;;13.85;4.47;;;;;;;15.81;61.80;102783.50;5132587;27;20074;-57
2021/06/13 06:22:50;;;;;;;11.63;3.53;;;;;;;15.98;60.88;102785.16;5132523;27;20035;-52
2021/06/13 06:25:19;;;;;;;13.02;4.30;;;;;;;15.97;60.51;102784.31;5113751;27;20583;-57
2021/06/13 06:27:46;;;;;;;10.73;4.75;;;;;;;16.10;60.98;102783.63;5098241;27;20440;-58
2021/06/13 06:30:14;;;;;;;12.35;3.97;;;;;;;16.15;60.08;102785.06;5140311;27;20111;-53
2021/06/13 06:32:41;;;;;;;10.23;3.83;;;;;;;16.23;58.62;102780.16;5132750;27;20043;-55
2021/06/13 06:35:12;;;;;;;11.73;4.15;;;;;;;16.35;57.49;102783.06;5115713;27;20411;-53
2021/06/13 06:37:41;;;;;;;9.32;3.60;;;;;;;16.39;56.58;102787.22;5116275;27;20051;-53
2021/06/13 06:40:10;;;;;;;12.93;3.67;;;;;;;16.58;57.40;102786.13;5133926;27;20485;-58
2021/06/13 06:42:37;;;;;;;10.48;3.55;;;;;;;16.71;56.56;102787.09;5133953;27;20039;-54
2021/06/13 06:45:06;;;;;;;9.13;3.83;;;;;;;16.89;56.35;102787.78;5133934;27;20047;-58
2021/06/13 06:47:33;;;;;;;13.15;4.20;;;;;;;16.96;55.94;102783.84;5115656;27;20047;-57
2021/06/13 06:50:05;;;;;;;9.80;3.38;;;;;;;17.22;56.04;102789.34;5134006;27;20039;-57
2021/06/13 06:52:34;;;;;;;10.57;3.65;;;;;;;17.37;53.15;102782.19;5133877;27;20457;-57
2021/06/13 06:55:01;;;;;;;10.02;3.08;;;;;;;17.47;53.91;102782.47;5134166;27;20043;-56
2021/06/13 06:57:30;;;;;;;10.32;3.47;;;;;;;17.60;52.02;102790.50;5115620;27;20512;-56
2021/06/13 06:59:57;;;;;;;9.27;3.30;;;;;;;17.68;52.15;102796.16;5133722;27;20047;-55
2021/06/13 07:02:24;;;;;;;10.77;3.30;;;;;;;17.73;51.83;102797.56;5115971;27;20545;-54
2021/06/13 07:04:51;;;;;;;7.80;3.45;;;;;;;17.86;51.80;102805.63;5133395;27;20411;-54
2021/06/13 07:07:18;;;;;;;9.30;3.40;;;;;;;18.08;51.25;102809.56;5133467;27;20378;-55
2021/06/13 07:09:45;;;;;;;13.75;4.32;;;;;;;18.33;50.25;102810.59;5115352;27;20414;-55
2021/06/13 07:12:11;;;;;;;8.55;3.25;;;;;;;18.59;50.20;102804.34;5133488;27;20047;-55
2021/06/13 07:14:38;;;;;;;8.68;3.28;;;;;;;18.63;48.25;102810.31;5133451;27;20046;-57
2021/06/13 07:17:05;;;;;;;10.07;3.17;;;;;;;18.72;48.35;102816.84;5114872;27;20104;-57
2021/06/13 07:19:32;;;;;;;10.77;4.13;;;;;;;18.67;49.49;102817.13;5133440;27;20050;-55
2021/06/13 07:21:59;;;;;;;10.50;3.95;;;;;;;18.88;49.97;102819.31;5133254;27;20116;-55
2021/06/13 07:24:26;;;;;;;11.13;3.20;;;;;;;19.22;50.45;102822.28;5115014;27;20501;-55
2021/06/13 07:26:53;;;;;;;9.70;3.60;;;;;;;19.21;47.87;102828.56;5115340;28;20432;-57
2021/06/13 07:29:20;;;;;;;8.40;3.88;;;;;;;19.37;48.37;102818.53;5133292;27;20429;-57
2021/06/13 07:31:47;;;;;;;9.43;3.10;;;;;;;19.59;48.33;102816.94;5114822;28;20421;-57
2021/06/13 07:34:14;;;;;;;12.18;3.50;;;;;;;19.86;47.90;102810.59;5114498;28;20073;-57
2021/06/13 07:36:41;;;;;;;7.25;3.17;;;;;;;20.10;47.42;102808.75;5133561;28;20047;-54
2021/06/13 07:39:08;;;;;;;10.02;3.60;;;;;;;20.05;45.20;102815.41;5133224;28;20058;-58
2021/06/13 07:41:35;;;;;;;14.90;4.00;;;;;;;19.87;46.45;102815.81;5133125;27;20054;-57
2021/06/13 07:44:02;;;;;;;10.38;4.03;;;;;;;19.83;46.70;102825.03;5114629;28;20054;-57
2021/06/13 07:46:29;;;;;;;10.55;3.47;;;;;;;19.96;45.15;102822.31;5115032;27;20055;-55
2021/06/13 07:48:57;;;;;;;9.43;3.80;;;;;;;19.90;45.28;102820.09;5098260;27;20070;-58
2021/06/13 07:51:24;;;;;;;10.05;3.50;;;;;;;20.09;45.36;102827.56;5098054;28;20074;-56
2021/06/13 07:53:51;;;;;;;10.45;3.58;;;;;;;20.16;45.18;102822.63;5133120;27;20043;-58
2021/06/13 07:56:17;;;;;;;8.25;3.05;;;;;;;19.92;44.66;102834.19;5132667;28;20065;-56
2021/06/13 07:58:44;;;;;;;9.50;3.47;;;;;;;20.04;44.60;102830.59;5132870;28;20039;-56
2021/06/13 08:01:11;;;;;;;10.27;3.28;;;;;;;19.89;43.80;102831.72;5114789;28;20039;-56
2021/06/13 08:03:39;;;;;;;11.90;3.42;;;;;;;20.19;44.08;102830.41;5132998;27;20051;-55
2021/06/13 08:06:07;;;;;;;8.85;3.40;;;;;;;20.36;43.72;102835.34;5132328;28;20047;-57
2021/06/13 08:08:33;;;;;;;8.60;3.08;;;;;;;20.42;43.54;102832.22;5133029;28;20035;-57
2021/06/13 08:11:02;;;;;;;13.40;3.35;;;;;;;20.42;43.12;102834.88;5133000;28;20490;-57
2021/06/13 08:13:29;;;;;;;9.32;3.17;;;;;;;20.84;42.66;102830.88;5133151;27;20047;-57
2021/06/13 08:15:55;;;;;;;10.23;3.20;;;;;;;21.24;42.16;102833.06;5114747;28;20043;-57
2021/06/13 08:18:22;;;;;;;8.77;3.28;;;;;;;21.25;41.46;102821.41;5132848;28;20051;-56
2021/06/13 08:20:50;;;;;;;9.77;3.65;;;;;;;21.59;41.70;102832.94;5098062;28;20035;-56
2021/06/13 08:23:17;;;;;;;12.85;3.92;;;;;;;21.74;41.63;102828.16;5114796;28;20063;-58
2021/06/13 08:25:44;;;;;;;8.13;3.28;;;;;;;21.92;42.07;102831.16;5132750;28;20114;-58
2021/06/13 08:28:11;;;;;;;10.57;3.90;;;;;;;22.01;40.26;102832.22;5132837;28;20498;-58
2021/06/13 08:30:38;;;;;;;9.05;3.10;;;;;;;21.93;40.82;102834.69;5132781;28;20036;-58
2021/06/13 08:33:06;;;;;;;8.38;3.97;;;;;;;22.10;40.84;102842.16;5114663;28;20138;-57
2021/06/13 08:35:33;;;;;;;9.00;3.28;;;;;;;21.95;42.04;102838.06;5132974;28;20039;-56
2021/06/13 08:38:03;;;;;;;12.05;3.50;;;;;;;22.03;40.73;102838.31;5114692;28;20152;-56
2021/06/13 08:40:30;;;;;;;9.00;3.53;;;;;;;21.94;41.28;102847.09;5114768;28;20043;-56
2021/06/13 08:42:57;;;;;;;10.75;3.88;;;;;;;21.68;41.61;102834.03;5132566;28;20441;-58
2021/06/13 08:45:26;;;;;;;9.05;3.90;;;;;;;21.85;41.19;102829.94;5116521;27;20047;-57
2021/06/13 08:47:57;;;;;;;10.52;3.72;;;;;;;21.96;41.93;102837.09;5118022;27;20084;-56
2021/06/13 08:50:24;;;;;;;8.55;3.67;;;;;;;21.31;41.59;102841.44;5136250;27;20381;-57
2021/06/13 08:52:52;;;;;;;10.00;3.47;;;;;;;21.03;43.17;102836.47;5136226;27;20538;-55
2021/06/13 08:55:22;;;;;;;8.35;3.72;;;;;;;21.32;42.47;102846.69;5117657;27;20047;-57
2021/06/13 08:57:51;;;;;;;10.30;3.97;;;;;;;21.58;41.33;102841.97;5136525;27;20046;-55
2021/06/13 09:00:22;;;;;;;13.75;3.80;;;;;;;21.74;40.87;102841.53;5135929;27;20046;-57
2021/06/13 09:02:49;;;;;;;8.65;3.47;;;;;;;21.83;39.40;102844.44;5135865;27;20047;-57
2021/06/13 09:05:19;;;;;;;10.20;3.58;;;;;;;22.19;39.26;102834.34;5100193;27;20134;-57
2021/06/13 09:07:51;;;;;;;8.90;3.60;;;;;;;22.39;38.44;102838.91;5117330;27;20047;-56
2021/06/13 09:10:22;;;;;;;10.65;3.33;;;;;;;22.60;39.48;102846.09;5100427;27;20134;-58
2021/06/13 09:12:51;;;;;;;8.20;3.47;;;;;;;22.68;38.96;102838.25;5117378;27;20061;-57
2021/06/13 09:15:20;;;;;;;9.30;3.53;;;;;;;22.64;39.27;102838.66;5135361;27;20041;-56
2021/06/13 09:17:47;;;;;;;10.00;3.42;;;;;;;22.73;39.58;102833.34;5117297;27;20123;-57
2021/06/13 09:20:20;;;;;;;9.75;3.55;;;;;;;22.67;38.13;102836.53;5135549;27;20058;-56
2021/06/13 09:23:08;;;;;;;10.10;3.38;;;;;;;23.05;38.59;102845.78;5135720;27;20062;-59
2021/06/13 09:25:37;;;;;;;9.75;3.20;;;;;;;22.83;37.32;102843.28;5117435;27;20050;-59
2021/06/13 09:28:14;;;;;;;8.27;3.00;;;;;;;22.84;37.53;102847.63;5135697;27;20043;-59
2021/06/13 09:30:44;;;;;;;10.75;3.83;;;;;;;23.44;36.57;102840.59;5135165;27;20489;-55
2021/06/13 09:33:26;;;;;;;9.13;3.28;;;;;;;23.48;35.87;102843.84;5117249;27;20130;-59
2021/06/13 09:35:54;;;;;;;9.32;3.50;;;;;;;23.65;35.92;102845.00;5135287;27;20062;-59
2021/06/13 09:38:37;;;;;;;9.13;3.28;;;;;;;24.24;35.81;102832.50;5117043;27;20095;-58
2021/06/13 09:41:13;;;;;;;7.13;3.28;;;;;;;24.53;34.75;102839.69;5117018;27;20043;-58
2021/06/13 09:43:45;;;;;;;8.82;3.13;;;;;;;24.54;34.38;102837.84;5135260;27;20054;-58
2021/06/13 09:46:23;;;;;;;9.15;3.60;;;;;;;24.03;34.66;102832.66;5116532;27;20056;-57
2021/06/13 09:48:55;;;;;;;9.63;3.25;;;;;;;24.32;33.96;102831.78;5116739;27;20062;-57
2021/06/13 09:51:25;;;;;;;10.07;3.22;;;;;;;24.74;34.43;102836.84;5099496;27;20047;-58
2021/06/13 09:53:53;;;;;;;7.30;2.75;;;;;;;24.84;34.92;102825.19;5134984;27;20485;-56
2021/06/13 09:56:22;;;;;;;7.57;2.72;;;;;;;24.72;34.38;102829.91;5133870;27;20055;-56
2021/06/13 09:58:51;;;;;;;9.77;3.40;;;;;;;24.63;34.39;102837.84;5135115;27;20050;-56
2021/06/13 10:01:19;;;;;;;9.13;3.08;;;;;;;24.98;33.23;102827.41;5116521;27;20048;-58
2021/06/13 10:03:47;;;;;;;8.80;3.20;;;;;;;25.01;33.85;102824.44;5116620;27;20051;-56
2021/06/13 10:06:19;;;;;;;9.45;3.35;;;;;;;24.47;33.57;102829.50;5134230;27;20054;-57
2021/06/13 10:08:48;;;;;;;7.13;2.78;;;;;;;25.01;33.57;102819.03;5082515;27;20130;-56
2021/06/13 10:11:17;;;;;;;10.23;3.40;;;;;;;25.51;34.16;102827.75;5116403;27;20490;-59
2021/06/13 10:13:51;;;;;;;8.57;3.22;;;;;;;25.88;33.20;102816.84;5099387;27;20043;-57
2021/06/13 10:16:24;;;;;;;10.05;3.55;;;;;;;26.10;34.93;102815.56;5114657;27;20088;-59
2021/06/13 10:18:53;;;;;;;8.88;3.10;;;;;;;26.54;33.93;102803.06;5132147;27;20047;-57
2021/06/13 10:21:20;;;;;;;8.25;3.17;;;;;;;26.65;31.23;102811.75;5099047;27;20096;-56
2021/06/13 10:23:48;;;;;;;7.30;3.15;;;;;;;26.66;31.88;102816.13;5133994;27;20104;-56
2021/06/13 10:26:15;;;;;;;7.45;2.95;;;;;;;26.62;31.04;102812.03;5133558;27;20039;-56
2021/06/13 10:28:42;;;;;;;8.40;3.15;;;;;;;26.44;31.57;102801.31;5098666;27;20164;-56
2021/06/13 10:31:08;;;;;;;6.68;3.00;;;;;;;26.77;30.97;102801.53;5115553;27;20104;-57
2021/06/13 10:33:35;;;;;;;9.48;2.88;;;;;;;26.74;30.39;102801.03;5113312;27;20055;-59
2021/06/13 10:36:02;;;;;;;7.45;3.15;;;;;;;25.87;30.32;102806.22;5113655;27;20391;-58
2021/06/13 10:38:30;;;;;;;10.18;3.47;;;;;;;26.19;31.28;102805.69;5133556;27;20051;-59
2021/06/13 10:40:59;;;;;;;8.05;2.97;;;;;;;26.56;31.26;102809.13;5133759;27;20035;-56
2021/06/13 10:43:28;;;;;;;6.85;2.85;;;;;;;26.81;30.70;102802.91;5132166;27;20043;-56
2021/06/13 10:46:06;;;;;;;9.07;3.63;;;;;;;26.66;30.18;102799.94;5113451;27;20043;-57
2021/06/13 10:48:53;;;;;;;7.68;3.20;;;;;;;26.71;30.30;102793.22;5097948;27;20074;-59
2021/06/13 10:51:33;;;;;;;9.00;3.28;;;;;;;27.03;30.69;102794.41;5111526;27;20054;-59
2021/06/13 10:54:19;;;;;;;10.02;3.72;;;;;;;27.12;29.74;102794.28;5132905;27;20240;-57
2021/06/13 10:56:50;;;;;;;8.88;3.25;;;;;;;27.64;29.43;102798.66;5133647;27;20055;-57
2021/06/13 10:59:20;;;;;;;8.75;3.20;;;;;;;27.46;30.69;102801.50;5133605;27;20046;-55
2021/06/13 11:02:11;;;;;;;8.15;2.80;;;;;;;27.49;28.73;102787.66;5117180;27;20398;-58
2021/06/13 11:04:50;;;;;;;8.32;3.03;;;;;;;27.69;28.91;102791.91;5132240;27;20039;-58
2021/06/13 11:07:29;;;;;;;8.95;3.00;;;;;;;27.42;28.53;102793.88;5135786;27;20054;-60
2021/06/13 11:10:14;;;;;;;7.97;3.10;;;;;;;26.85;28.74;102789.13;5148848;27;20088;-58
2021/06/13 11:12:51;;;;;;;8.10;3.00;;;;;;;27.56;29.08;102793.25;5141608;27;20084;-58
2021/06/13 11:18:15;;;;;;;10.02;3.60;;;;;;;27.35;29.12;102784.72;5146285;27;20053;-57
2021/06/13 11:20:48;;;;;;;7.78;2.92;;;;;;;27.81;29.53;102786.03;5117168;27;20054;-57
2021/06/13 11:23:20;;;;;;;6.95;2.92;;;;;;;28.11;27.98;102775.53;5145983;27;20035;-56
2021/06/13 11:25:48;;;;;;;7.65;2.97;;;;;;;28.46;28.36;102770.75;5130398;27;20039;-58
2021/06/13 11:28:29;;;;;;;6.13;2.70;;;;;;;27.32;29.15;102769.69;5128448;27;20565;-57
2021/06/13 11:30:59;;;;;;;9.00;3.05;;;;;;;27.07;29.02;102777.72;5135896;27;20049;-56
2021/06/13 11:33:47;;;;;;;7.55;3.05;;;;;;;26.90;29.54;102774.13;5138353;27;20054;-56